sensor_id;sensor_type;location;lat;lon;timestamp;pressure;altitude;pressure_sealevel;temperature;humidity
78509;BME280;67802;50.846;7.958;2023-05-23T00:00:30;97812.06;;;21.11;46.09
78509;BME280;67802;50.846;7.958;2023-05-23T00:02:57;97815.56;;;21.11;45.83
78509;BME280;67802;50.846;7.958;2023-05-23T00:05:22;97820.97;;;21.10;46.02
78509;BME280;67802;50.846;7.958;2023-05-23T00:07:48;97820.97;;;21.10;45.78
78509;BME280;67802;50.846;7.958;2023-05-23T00:10:13;97828.19;;;21.08;45.84
78509;BME280;67802;50.846;7.958;2023-05-23T00:12:38;97824.72;;;21.07;46.01
78509;BME280;67802;50.846;7.958;2023-05-23T00:15:07;97833.59;;;21.06;45.86
78509;BME280;67802;50.846;7.958;2023-05-23T00:17:32;97835.41;;;21.05;45.97
78509;BME280;67802;50.846;7.958;2023-05-23T00:19:58;97827.63;;;21.04;45.97
78509;BME280;67802;50.846;7.958;2023-05-23T00:22:23;97830.25;;;21.04;45.94
78509;BME280;67802;50.846;7.958;2023-05-23T00:24:48;97834.84;;;21.02;45.88
78509;BME280;67802;50.846;7.958;2023-05-23T00:27:14;97842.75;;;21.02;45.70
78509;BME280;67802;50.846;7.958;2023-05-23T00:29:39;97836.78;;;21.00;46.02
78509;BME280;67802;50.846;7.958;2023-05-23T00:32:05;97836.78;;;21.00;45.95
78509;BME280;67802;50.846;7.958;2023-05-23T00:34:30;97843.03;;;20.99;45.85
78509;BME280;67802;50.846;7.958;2023-05-23T00:36:55;97844.81;;;20.98;45.77
78509;BME280;67802;50.846;7.958;2023-05-23T00:39:22;97848.41;;;20.97;45.91
78509;BME280;67802;50.846;7.958;2023-05-23T00:41:48;97847.59;;;20.97;45.87
78509;BME280;67802;50.846;7.958;2023-05-23T00:44:14;97850.34;;;20.95;45.96
78509;BME280;67802;50.846;7.958;2023-05-23T00:46:42;97847.88;;;20.94;45.82
78509;BME280;67802;50.846;7.958;2023-05-23T00:49:08;97849.66;;;20.93;45.82
78509;BME280;67802;50.846;7.958;2023-05-23T00:51:34;97851.47;;;20.93;45.83
78509;BME280;67802;50.846;7.958;2023-05-23T00:54:00;97852.44;;;20.92;46.00
78509;BME280;67802;50.846;7.958;2023-05-23T00:56:27;97858.56;;;20.92;45.92
78509;BME280;67802;50.846;7.958;2023-05-23T00:58:53;97857.00;;;20.89;45.82
78509;BME280;67802;50.846;7.958;2023-05-23T01:01:19;97862.28;;;20.89;45.91
78509;BME280;67802;50.846;7.958;2023-05-23T01:03:44;97848.38;;;20.87;45.94
78509;BME280;67802;50.846;7.958;2023-05-23T01:06:12;97851.72;;;20.89;45.85
78509;BME280;67802;50.846;7.958;2023-05-23T01:08:38;97841.44;;;20.86;45.87
78509;BME280;67802;50.846;7.958;2023-05-23T01:11:11;97845.88;;;20.86;45.85
78509;BME280;67802;50.846;7.958;2023-05-23T01:13:42;97844.22;;;20.85;45.66
78509;BME280;67802;50.846;7.958;2023-05-23T01:16:15;97838.94;;;20.85;45.93
78509;BME280;67802;50.846;7.958;2023-05-23T01:18:57;97838.09;;;20.84;46.09
78509;BME280;67802;50.846;7.958;2023-05-23T01:21:24;97846.16;;;20.83;45.93
78509;BME280;67802;50.846;7.958;2023-05-23T01:24:17;97853.22;;;20.82;46.13
78509;BME280;67802;50.846;7.958;2023-05-23T01:29:25;97839.31;;;20.80;46.00
78509;BME280;67802;50.846;7.958;2023-05-23T01:31:53;97844.75;;;20.79;46.07
78509;BME280;67802;50.846;7.958;2023-05-23T01:34:20;97843.88;;;20.78;45.97
78509;BME280;67802;50.846;7.958;2023-05-23T01:36:49;97850.13;;;20.77;46.03
78509;BME280;67802;50.846;7.958;2023-05-23T01:39:14;97862.47;;;20.76;46.04
78509;BME280;67802;50.846;7.958;2023-05-23T01:41:40;97845.78;;;20.76;46.03
78509;BME280;67802;50.846;7.958;2023-05-23T01:44:06;97836.19;;;20.75;46.05
78509;BME280;67802;50.846;7.958;2023-05-23T01:46:33;97842.44;;;20.74;46.12
78509;BME280;67802;50.846;7.958;2023-05-23T01:49:00;97843.41;;;20.73;46.06
78509;BME280;67802;50.846;7.958;2023-05-23T01:51:26;97850.50;;;20.72;46.19
78509;BME280;67802;50.846;7.958;2023-05-23T01:53:52;97849.66;;;20.72;46.17
78509;BME280;67802;50.846;7.958;2023-05-23T01:56:19;97862.03;;;20.71;46.15
78509;BME280;67802;50.846;7.958;2023-05-23T01:58:45;97863.00;;;20.70;46.14
78509;BME280;67802;50.846;7.958;2023-05-23T02:01:11;97855.06;;;20.70;46.12
78509;BME280;67802;50.846;7.958;2023-05-23T02:03:36;97855.19;;;20.69;46.01
78509;BME280;67802;50.846;7.958;2023-05-23T02:06:02;97853.50;;;20.68;46.10
78509;BME280;67802;50.846;7.958;2023-05-23T02:08:27;97857.13;;;20.67;46.08
78509;BME280;67802;50.846;7.958;2023-05-23T02:10:52;97856.31;;;20.66;46.14
78509;BME280;67802;50.846;7.958;2023-05-23T02:13:18;97866.84;;;20.66;46.10
78509;BME280;67802;50.846;7.958;2023-05-23T02:15:43;97860.75;;;20.66;46.18
78509;BME280;67802;50.846;7.958;2023-05-23T02:18:08;97860.88;;;20.64;46.16
78509;BME280;67802;50.846;7.958;2023-05-23T02:20:34;97851.28;;;20.63;46.18
78509;BME280;67802;50.846;7.958;2023-05-23T02:22:59;97853.91;;;20.63;46.21
78509;BME280;67802;50.846;7.958;2023-05-23T02:25:25;97860.16;;;20.62;46.20
78509;BME280;67802;50.846;7.958;2023-05-23T02:27:50;97852.38;;;20.60;46.07
78509;BME280;67802;50.846;7.958;2023-05-23T02:30:16;97854.06;;;20.61;46.19
78509;BME280;67802;50.846;7.958;2023-05-23T02:32:41;97861.28;;;20.59;46.23
78509;BME280;67802;50.846;7.958;2023-05-23T02:35:07;97858.63;;;20.59;46.11
78509;BME280;67802;50.846;7.958;2023-05-23T02:37:32;97868.34;;;20.59;46.08
78509;BME280;67802;50.846;7.958;2023-05-23T02:39:57;97870.16;;;20.58;46.14
78509;BME280;67802;50.846;7.958;2023-05-23T02:42:23;97877.22;;;20.58;46.08
78509;BME280;67802;50.846;7.958;2023-05-23T02:44:48;97882.63;;;20.56;46.29
78509;BME280;67802;50.846;7.958;2023-05-23T02:47:13;97875.69;;;20.55;45.96
78509;BME280;67802;50.846;7.958;2023-05-23T02:49:39;97872.19;;;20.55;46.13
78509;BME280;67802;50.846;7.958;2023-05-23T02:52:04;97875.78;;;20.54;46.02
78509;BME280;67802;50.846;7.958;2023-05-23T02:54:29;97882.88;;;20.53;46.04
78509;BME280;67802;50.846;7.958;2023-05-23T02:56:55;97882.88;;;20.53;45.97
78509;BME280;67802;50.846;7.958;2023-05-23T02:59:20;97881.22;;;20.52;45.91
78509;BME280;67802;50.846;7.958;2023-05-23T03:01:47;97870.66;;;20.52;46.05
78509;BME280;67802;50.846;7.958;2023-05-23T03:04:12;97868.13;;;20.51;46.01
78509;BME280;67802;50.846;7.958;2023-05-23T03:06:38;97877.88;;;20.50;46.01
78509;BME280;67802;50.846;7.958;2023-05-23T03:09:04;97877.88;;;20.50;46.02
78509;BME280;67802;50.846;7.958;2023-05-23T03:11:30;97876.19;;;20.49;45.98
78509;BME280;67802;50.846;7.958;2023-05-23T03:13:55;97887.72;;;20.48;46.04
78509;BME280;67802;50.846;7.958;2023-05-23T03:16:21;97880.75;;;20.47;46.24
78509;BME280;67802;50.846;7.958;2023-05-23T03:18:47;97885.19;;;20.46;46.08
78509;BME280;67802;50.846;7.958;2023-05-23T03:21:12;97887.13;;;20.44;46.01
78509;BME280;67802;50.846;7.958;2023-05-23T03:23:38;97895.88;;;20.45;46.01
78509;BME280;67802;50.846;7.958;2023-05-23T03:26:03;97898.53;;;20.45;46.02
78509;BME280;67802;50.846;7.958;2023-05-23T03:28:30;97895.16;;;20.43;45.96
78509;BME280;67802;50.846;7.958;2023-05-23T03:30:56;97903.91;;;20.43;46.01
78509;BME280;67802;50.846;7.958;2023-05-23T03:33:21;97896.13;;;20.42;46.13
78509;BME280;67802;50.846;7.958;2023-05-23T03:35:46;97904.06;;;20.42;46.16
78509;BME280;67802;50.846;7.958;2023-05-23T03:38:12;97915.56;;;20.41;46.08
78509;BME280;67802;50.846;7.958;2023-05-23T03:40:37;97914.72;;;20.40;46.08
78509;BME280;67802;50.846;7.958;2023-05-23T03:43:04;97918.34;;;20.39;46.11
78509;BME280;67802;50.846;7.958;2023-05-23T03:45:32;97913.19;;;20.38;46.08
78509;BME280;67802;50.846;7.958;2023-05-23T03:47:58;97915.81;;;20.38;46.02
78509;BME280;67802;50.846;7.958;2023-05-23T03:50:24;97912.34;;;20.37;46.16
78509;BME280;67802;50.846;7.958;2023-05-23T03:52:49;97917.75;;;20.36;46.08
78509;BME280;67802;50.846;7.958;2023-05-23T03:55:15;97920.38;;;20.36;46.07
78509;BME280;67802;50.846;7.958;2023-05-23T03:57:40;97926.63;;;20.35;46.09
78509;BME280;67802;50.846;7.958;2023-05-23T04:00:06;97913.44;;;20.35;45.94
78509;BME280;67802;50.846;7.958;2023-05-23T04:02:36;97911.03;;;20.31;45.94
78509;BME280;67802;50.846;7.958;2023-05-23T04:05:01;97918.00;;;20.33;45.99
78509;BME280;67802;50.846;7.958;2023-05-23T04:07:27;97922.44;;;20.32;46.02
78509;BME280;67802;50.846;7.958;2023-05-23T04:09:52;97926.88;;;20.31;46.00
78509;BME280;67802;50.846;7.958;2023-05-23T04:12:17;97922.56;;;20.30;45.99
78509;BME280;67802;50.846;7.958;2023-05-23T04:14:43;97919.91;;;20.30;45.99
78509;BME280;67802;50.846;7.958;2023-05-23T04:17:08;97922.69;;;20.29;46.04
78509;BME280;67802;50.846;7.958;2023-05-23T04:19:34;97916.56;;;20.28;45.94
78509;BME280;67802;50.846;7.958;2023-05-23T04:21:59;97924.47;;;20.28;46.11
78509;BME280;67802;50.846;7.958;2023-05-23T04:24:25;97924.47;;;20.28;46.01
78509;BME280;67802;50.846;7.958;2023-05-23T04:26:50;97917.53;;;20.27;45.96
78509;BME280;67802;50.846;7.958;2023-05-23T04:29:15;97929.03;;;20.26;46.02
78509;BME280;67802;50.846;7.958;2023-05-23T04:31:41;97923.78;;;20.26;45.91
78509;BME280;67802;50.846;7.958;2023-05-23T04:34:09;97934.31;;;20.26;45.87
78509;BME280;67802;50.846;7.958;2023-05-23T04:36:35;97926.53;;;20.25;45.96
78509;BME280;67802;50.846;7.958;2023-05-23T04:39:02;97926.53;;;20.25;45.92
78509;BME280;67802;50.846;7.958;2023-05-23T04:41:28;97930.97;;;20.24;45.86
78509;BME280;67802;50.846;7.958;2023-05-23T04:43:53;97930.97;;;20.24;45.91
78509;BME280;67802;50.846;7.958;2023-05-23T04:46:19;97929.28;;;20.23;45.98
78509;BME280;67802;50.846;7.958;2023-05-23T04:48:50;97929.28;;;20.23;45.92
78509;BME280;67802;50.846;7.958;2023-05-23T04:51:16;97931.09;;;20.23;45.91
78509;BME280;67802;50.846;7.958;2023-05-23T04:53:41;97934.72;;;20.22;45.94
78509;BME280;67802;50.846;7.958;2023-05-23T04:56:07;97932.19;;;20.20;45.87
78509;BME280;67802;50.846;7.958;2023-05-23T04:58:33;97934.81;;;20.20;45.87
78509;BME280;67802;50.846;7.958;2023-05-23T05:00:58;97943.69;;;20.19;45.81
78509;BME280;67802;50.846;7.958;2023-05-23T05:03:23;97934.94;;;20.19;45.89
78509;BME280;67802;50.846;7.958;2023-05-23T05:05:49;97939.38;;;20.18;45.79
78509;BME280;67802;50.846;7.958;2023-05-23T05:08:14;97937.59;;;20.19;45.91
78509;BME280;67802;50.846;7.958;2023-05-23T05:10:44;97940.34;;;20.17;45.90
78509;BME280;67802;50.846;7.958;2023-05-23T05:13:09;97940.34;;;20.17;45.98
78509;BME280;67802;50.846;7.958;2023-05-23T05:15:34;97936.97;;;20.15;45.96
78509;BME280;67802;50.846;7.958;2023-05-23T05:18:00;97931.72;;;20.15;45.89
78509;BME280;67802;50.846;7.958;2023-05-23T05:20:25;97924.75;;;20.14;45.96
78509;BME280;67802;50.846;7.958;2023-05-23T05:22:55;97921.31;;;20.13;45.84
78509;BME280;67802;50.846;7.958;2023-05-23T05:25:21;97931.84;;;20.13;45.85
78509;BME280;67802;50.846;7.958;2023-05-23T05:27:47;97947.66;;;20.13;45.83
78509;BME280;67802;50.846;7.958;2023-05-23T05:30:12;97945.03;;;20.13;46.01
78509;BME280;67802;50.846;7.958;2023-05-23T05:32:38;97944.22;;;20.13;45.84
78509;BME280;67802;50.846;7.958;2023-05-23T05:35:03;97946.84;;;20.13;45.81
78509;BME280;67802;50.846;7.958;2023-05-23T05:37:29;97938.94;;;20.13;46.23
78509;BME280;67802;50.846;7.958;2023-05-23T05:39:54;97954.75;;;20.13;45.92
78509;BME280;67802;50.846;7.958;2023-05-23T05:42:21;97947.81;;;20.12;45.86
78509;BME280;67802;50.846;7.958;2023-05-23T05:44:47;97946.97;;;20.11;45.81
78509;BME280;67802;50.846;7.958;2023-05-23T05:47:13;97946.13;;;20.11;45.94
78509;BME280;67802;50.846;7.958;2023-05-23T05:49:38;97952.38;;;20.10;45.99
78509;BME280;67802;50.846;7.958;2023-05-23T05:52:05;97954.16;;;20.09;45.93
78509;BME280;67802;50.846;7.958;2023-05-23T05:54:31;97958.59;;;20.09;46.01
78509;BME280;67802;50.846;7.958;2023-05-23T05:56:56;97962.19;;;20.08;45.71
78509;BME280;67802;50.846;7.958;2023-05-23T05:59:21;97962.19;;;20.08;45.70
78509;BME280;67802;50.846;7.958;2023-05-23T06:01:47;97960.53;;;20.07;46.06
78509;BME280;67802;50.846;7.958;2023-05-23T06:04:12;97968.44;;;20.07;45.88
78509;BME280;67802;50.846;7.958;2023-05-23T06:06:38;97965.91;;;20.05;45.80
78509;BME280;67802;50.846;7.958;2023-05-23T06:09:03;97972.03;;;20.06;45.89
78509;BME280;67802;50.846;7.958;2023-05-23T06:11:29;97958.00;;;20.05;45.72
78509;BME280;67802;50.846;7.958;2023-05-23T06:13:54;97967.72;;;20.05;45.72
78509;BME280;67802;50.846;7.958;2023-05-23T06:16:19;97958.13;;;20.04;45.71
78509;BME280;67802;50.846;7.958;2023-05-23T06:18:44;97961.59;;;20.04;45.95
78509;BME280;67802;50.846;7.958;2023-05-23T06:21:10;97964.63;;;19.99;46.74
78509;BME280;67802;50.846;7.958;2023-05-23T06:23:35;97965.09;;;19.93;47.01
78509;BME280;67802;50.846;7.958;2023-05-23T06:26:00;97964.59;;;19.88;47.12
78509;BME280;67802;50.846;7.958;2023-05-23T06:28:26;97967.47;;;19.85;47.45
78509;BME280;67802;50.846;7.958;2023-05-23T06:30:51;97965.78;;;19.84;47.24
78509;BME280;67802;50.846;7.958;2023-05-23T06:33:16;97965.56;;;19.87;47.14
78509;BME280;67802;50.846;7.958;2023-05-23T06:35:42;97972.28;;;19.91;47.13
78509;BME280;67802;50.846;7.958;2023-05-23T06:38:07;97968.44;;;19.95;47.15
78509;BME280;67802;50.846;7.958;2023-05-23T06:40:33;97982.34;;;19.97;47.21
78509;BME280;67802;50.846;7.958;2023-05-23T06:42:58;97971.56;;;20.00;47.24
78509;BME280;67802;50.846;7.958;2023-05-23T06:45:23;97972.28;;;20.02;47.26
78509;BME280;67802;50.846;7.958;2023-05-23T06:47:48;97978.13;;;20.06;47.14
78509;BME280;67802;50.846;7.958;2023-05-23T06:50:14;97977.16;;;20.07;47.09
78509;BME280;67802;50.846;7.958;2023-05-23T06:52:39;97979.69;;;20.09;47.09
78509;BME280;67802;50.846;7.958;2023-05-23T06:55:07;97988.34;;;20.11;47.16
78509;BME280;67802;50.846;7.958;2023-05-23T06:57:32;97988.19;;;20.12;46.99
78509;BME280;67802;50.846;7.958;2023-05-23T06:59:57;97988.06;;;20.14;46.86
78509;BME280;67802;50.846;7.958;2023-05-23T07:02:23;97990.69;;;20.14;46.92
78509;BME280;67802;50.846;7.958;2023-05-23T07:04:48;97992.38;;;20.15;46.97
78509;BME280;67802;50.846;7.958;2023-05-23T07:07:13;98000.88;;;20.19;47.06
78509;BME280;67802;50.846;7.958;2023-05-23T07:09:39;98000.03;;;20.18;46.97
78509;BME280;67802;50.846;7.958;2023-05-23T07:12:05;97998.13;;;20.20;46.88
78509;BME280;67802;50.846;7.958;2023-05-23T07:14:30;98000.66;;;20.22;46.88
78509;BME280;67802;50.846;7.958;2023-05-23T07:16:56;97996.19;;;20.22;46.88
78509;BME280;67802;50.846;7.958;2023-05-23T07:19:21;97990.91;;;20.22;46.86
78509;BME280;67802;50.846;7.958;2023-05-23T07:21:46;97999.69;;;20.23;46.78
78509;BME280;67802;50.846;7.958;2023-05-23T07:24:12;97999.53;;;20.24;46.63
78509;BME280;67802;50.846;7.958;2023-05-23T07:26:37;98004.81;;;20.24;46.64
78509;BME280;67802;50.846;7.958;2023-05-23T07:29:02;98006.50;;;20.25;46.61
78509;BME280;67802;50.846;7.958;2023-05-23T07:31:28;98016.09;;;20.26;46.57
78509;BME280;67802;50.846;7.958;2023-05-23T07:33:53;98014.31;;;20.27;46.52
78509;BME280;67802;50.846;7.958;2023-05-23T07:36:19;98010.81;;;20.26;46.26
78509;BME280;67802;50.846;7.958;2023-05-23T07:38:44;98011.78;;;20.25;46.31
78509;BME280;67802;50.846;7.958;2023-05-23T07:41:10;98014.41;;;20.25;46.22
78509;BME280;67802;50.846;7.958;2023-05-23T07:43:35;98019.59;;;20.27;46.43
78509;BME280;67802;50.846;7.958;2023-05-23T07:46:00;98020.41;;;20.27;46.42
78509;BME280;67802;50.846;7.958;2023-05-23T07:48:25;98023.03;;;20.27;46.49
78509;BME280;67802;50.846;7.958;2023-05-23T07:50:51;98021.25;;;20.28;46.44
78509;BME280;67802;50.846;7.958;2023-05-23T07:53:19;98022.09;;;20.28;46.53
78509;BME280;67802;50.846;7.958;2023-05-23T07:55:45;98020.41;;;20.27;46.35
78509;BME280;67802;50.846;7.958;2023-05-23T07:58:10;98024.00;;;20.26;46.22
78509;BME280;67802;50.846;7.958;2023-05-23T08:00:35;98027.59;;;20.25;46.20
78509;BME280;67802;50.846;7.958;2023-05-23T08:03:01;98028.56;;;20.24;46.25
78509;BME280;67802;50.846;7.958;2023-05-23T08:05:27;98030.38;;;20.24;46.20
78509;BME280;67802;50.846;7.958;2023-05-23T08:07:52;98037.34;;;20.25;46.25
78509;BME280;67802;50.846;7.958;2023-05-23T08:10:19;98039.84;;;20.26;46.28
78509;BME280;67802;50.846;7.958;2023-05-23T08:12:44;98044.28;;;20.26;46.39
78509;BME280;67802;50.846;7.958;2023-05-23T08:15:10;98048.69;;;20.25;46.36
78509;BME280;67802;50.846;7.958;2023-05-23T08:17:35;98050.63;;;20.23;46.31
78509;BME280;67802;50.846;7.958;2023-05-23T08:20:01;98049.66;;;20.24;46.35
78509;BME280;67802;50.846;7.958;2023-05-23T08:22:27;98045.25;;;20.25;46.43
78509;BME280;67802;50.846;7.958;2023-05-23T08:24:52;98043.44;;;20.25;46.42
78509;BME280;67802;50.846;7.958;2023-05-23T08:27:18;98049.41;;;20.27;46.35
78509;BME280;67802;50.846;7.958;2023-05-23T08:29:43;98060.69;;;20.29;46.50
78509;BME280;67802;50.846;7.958;2023-05-23T08:32:08;98057.09;;;20.30;46.44
78509;BME280;67802;50.846;7.958;2023-05-23T08:34:33;98058.78;;;20.31;46.51
78509;BME280;67802;50.846;7.958;2023-05-23T08:36:59;98063.94;;;20.33;46.58
78509;BME280;67802;50.846;7.958;2023-05-23T08:39:25;98065.47;;;20.36;46.53
78509;BME280;67802;50.846;7.958;2023-05-23T08:41:51;98060.22;;;20.36;46.51
78509;BME280;67802;50.846;7.958;2023-05-23T08:44:16;98063.56;;;20.38;46.49
78509;BME280;67802;50.846;7.958;2023-05-23T08:46:45;98070.50;;;20.39;46.51
78509;BME280;67802;50.846;7.958;2023-05-23T08:49:12;98060.81;;;20.39;46.42
78509;BME280;67802;50.846;7.958;2023-05-23T08:51:41;98070.50;;;20.39;46.48
78509;BME280;67802;50.846;7.958;2023-05-23T08:54:07;98076.66;;;20.39;46.40
78509;BME280;67802;50.846;7.958;2023-05-23T08:56:34;98081.06;;;20.39;46.36
78509;BME280;67802;50.846;7.958;2023-05-23T08:59:00;98082.75;;;20.40;46.37
78509;BME280;67802;50.846;7.958;2023-05-23T09:01:26;98087.31;;;20.38;46.59
78509;BME280;67802;50.846;7.958;2023-05-23T09:03:52;98086.34;;;20.39;46.45
78509;BME280;67802;50.846;7.958;2023-05-23T09:06:21;98093.44;;;20.38;46.37
78509;BME280;67802;50.846;7.958;2023-05-23T09:08:47;98091.63;;;20.39;46.37
78509;BME280;67802;50.846;7.958;2023-05-23T09:11:12;98093.44;;;20.38;46.38
78509;BME280;67802;50.846;7.958;2023-05-23T09:13:38;98097.84;;;20.38;46.35
78509;BME280;67802;50.846;7.958;2023-05-23T09:16:08;98098.56;;;20.40;46.30
78509;BME280;67802;50.846;7.958;2023-05-23T09:18:40;98097.75;;;20.39;46.28
78509;BME280;67802;50.846;7.958;2023-05-23T09:21:11;98094.97;;;20.41;46.20
78509;BME280;67802;50.846;7.958;2023-05-23T09:23:39;98107.22;;;20.42;46.35
78509;BME280;67802;50.846;7.958;2023-05-23T09:26:06;98108.03;;;20.42;46.24
78509;BME280;67802;50.846;7.958;2023-05-23T09:28:33;98101.94;;;20.42;46.26
78509;BME280;67802;50.846;7.958;2023-05-23T09:31:03;98097.47;;;20.42;46.18
78509;BME280;67802;50.846;7.958;2023-05-23T09:33:35;98101.78;;;20.43;46.24
78509;BME280;67802;50.846;7.958;2023-05-23T09:36:03;98106.13;;;20.44;46.16
78509;BME280;67802;50.846;7.958;2023-05-23T09:38:29;98109.47;;;20.46;46.20
78509;BME280;67802;50.846;7.958;2023-05-23T09:40:54;98105.06;;;20.47;46.17
78509;BME280;67802;50.846;7.958;2023-05-23T09:43:22;98115.38;;;20.50;46.12
78509;BME280;67802;50.846;7.958;2023-05-23T09:45:47;98112.72;;;20.50;46.02
78509;BME280;67802;50.846;7.958;2023-05-23T09:48:13;98111.75;;;20.51;46.04
78509;BME280;67802;50.846;7.958;2023-05-23T09:50:38;98118.72;;;20.52;46.13
78509;BME280;67802;50.846;7.958;2023-05-23T09:53:03;98117.63;;;20.55;46.32
78509;BME280;67802;50.846;7.958;2023-05-23T09:55:29;98111.38;;;20.56;46.01
78509;BME280;67802;50.846;7.958;2023-05-23T09:57:57;98119.28;;;20.56;45.84
78509;BME280;67802;50.846;7.958;2023-05-23T10:00:23;98122.78;;;20.56;45.90
78509;BME280;67802;50.846;7.958;2023-05-23T10:02:55;98122.78;;;20.56;45.66
78509;BME280;67802;50.846;7.958;2023-05-23T10:05:37;98122.91;;;20.55;45.77
78509;BME280;67802;50.846;7.958;2023-05-23T10:08:10;98122.91;;;20.55;45.86
78509;BME280;67802;50.846;7.958;2023-05-23T10:13:34;98129.84;;;20.56;45.74
78509;BME280;67802;50.846;7.958;2023-05-23T10:18:53;98135.03;;;20.57;45.70
78509;BME280;67802;50.846;7.958;2023-05-23T10:21:28;98134.06;;;20.58;45.74
78509;BME280;67802;50.846;7.958;2023-05-23T10:23:58;98129.75;;;20.57;45.59
78509;BME280;67802;50.846;7.958;2023-05-23T10:26:23;98136.72;;;20.58;45.56
78509;BME280;67802;50.846;7.958;2023-05-23T10:28:50;98140.16;;;20.59;45.72
78509;BME280;67802;50.846;7.958;2023-05-23T10:31:16;98137.66;;;20.57;45.70
78509;BME280;67802;50.846;7.958;2023-05-23T10:33:49;98138.50;;;20.58;45.56
78509;BME280;67802;50.846;7.958;2023-05-23T10:36:21;98149.91;;;20.58;45.61
78509;BME280;67802;50.846;7.958;2023-05-23T10:39:12;98149.91;;;20.58;45.61
78509;BME280;67802;50.846;7.958;2023-05-23T10:41:48;98153.50;;;20.57;45.53
78509;BME280;67802;50.846;7.958;2023-05-23T10:44:29;98156.16;;;20.57;45.46
78509;BME280;67802;50.846;7.958;2023-05-23T10:46:56;98158.78;;;20.57;45.46
78509;BME280;67802;50.846;7.958;2023-05-23T10:52:06;98162.63;;;20.53;45.33
78509;BME280;67802;50.846;7.958;2023-05-23T10:54:52;98160.22;;;20.50;45.38
78509;BME280;67802;50.846;7.958;2023-05-23T10:57:20;98157.81;;;20.47;45.33
78509;BME280;67802;50.846;7.958;2023-05-23T10:59:46;98164.16;;;20.44;45.33
78509;BME280;67802;50.846;7.958;2023-05-23T11:02:15;98172.22;;;20.43;45.35
78509;BME280;67802;50.846;7.958;2023-05-23T11:04:43;98168.84;;;20.41;45.49
78509;BME280;67802;50.846;7.958;2023-05-23T11:07:28;98170.78;;;20.39;45.56
78509;BME280;67802;50.846;7.958;2023-05-23T11:10:10;98167.41;;;20.37;45.64
78509;BME280;67802;50.846;7.958;2023-05-23T11:12:40;98166.69;;;20.35;45.41
78509;BME280;67802;50.846;7.958;2023-05-23T11:17:49;98160.22;;;20.39;45.55
78509;BME280;67802;50.846;7.958;2023-05-23T11:20:14;98162.72;;;20.40;45.55
78509;BME280;67802;50.846;7.958;2023-05-23T11:22:52;98168.72;;;20.42;45.64
78509;BME280;67802;50.846;7.958;2023-05-23T11:25:17;98168.72;;;20.42;45.48
78509;BME280;67802;50.846;7.958;2023-05-23T11:27:45;98162.47;;;20.43;45.43
78509;BME280;67802;50.846;7.958;2023-05-23T11:30:17;98172.22;;;20.43;45.16
78509;BME280;67802;50.846;7.958;2023-05-23T11:32:53;98170.28;;;20.45;45.22
78509;BME280;67802;50.846;7.958;2023-05-23T11:35:21;98169.19;;;20.48;45.37
78509;BME280;67802;50.846;7.958;2023-05-23T11:37:46;98168.13;;;20.50;45.25
78509;BME280;67802;50.846;7.958;2023-05-23T11:40:26;98183.97;;;20.50;45.31
78509;BME280;67802;50.846;7.958;2023-05-23T11:42:53;98186.72;;;20.49;45.24
78509;BME280;67802;50.846;7.958;2023-05-23T11:45:19;98186.72;;;20.49;45.30
78509;BME280;67802;50.846;7.958;2023-05-23T11:47:44;98176.16;;;20.49;45.22
78509;BME280;67802;50.846;7.958;2023-05-23T11:50:10;98191.16;;;20.48;45.35
78509;BME280;67802;50.846;7.958;2023-05-23T11:52:35;98199.19;;;20.46;45.33
78509;BME280;67802;50.846;7.958;2023-05-23T11:55:00;98195.00;;;20.44;45.30
78509;BME280;67802;50.846;7.958;2023-05-23T11:57:26;98207.47;;;20.42;45.14
78509;BME280;67802;50.846;7.958;2023-05-23T11:59:52;98209.41;;;20.40;45.20
78509;BME280;67802;50.846;7.958;2023-05-23T12:02:20;98194.66;;;20.37;45.20
78509;BME280;67802;50.846;7.958;2023-05-23T12:04:45;98200.75;;;20.38;45.16
78509;BME280;67802;50.846;7.958;2023-05-23T12:07:10;98198.25;;;20.36;45.10
78509;BME280;67802;50.846;7.958;2023-05-23T12:09:43;98203.41;;;20.38;45.16
78509;BME280;67802;50.846;7.958;2023-05-23T12:12:09;98197.03;;;20.40;45.25
78509;BME280;67802;50.846;7.958;2023-05-23T12:14:34;98202.19;;;20.42;45.09
78509;BME280;67802;50.846;7.958;2023-05-23T12:17:00;98197.75;;;20.42;45.18
78509;BME280;67802;50.846;7.958;2023-05-23T12:19:25;98200.28;;;20.44;45.17
78509;BME280;67802;50.846;7.958;2023-05-23T12:21:51;98203.88;;;20.43;45.08
78509;BME280;67802;50.846;7.958;2023-05-23T12:24:18;98202.19;;;20.42;45.15
78509;BME280;67802;50.846;7.958;2023-05-23T12:26:51;98203.16;;;20.41;45.11
78509;BME280;67802;50.846;7.958;2023-05-23T12:29:21;98213.00;;;20.39;45.08
78509;BME280;67802;50.846;7.958;2023-05-23T12:31:52;98219.34;;;20.36;44.96
78509;BME280;67802;50.846;7.958;2023-05-23T12:34:19;98227.38;;;20.35;44.98
78509;BME280;67802;50.846;7.958;2023-05-23T12:36:44;98222.09;;;20.35;44.91
78509;BME280;67802;50.846;7.958;2023-05-23T12:39:10;98232.88;;;20.31;45.06
78509;BME280;67802;50.846;7.958;2023-05-23T12:41:36;98232.88;;;20.31;45.12
78509;BME280;67802;50.846;7.958;2023-05-23T12:44:01;98231.22;;;20.30;45.14
78509;BME280;67802;50.846;7.958;2023-05-23T12:46:28;98231.22;;;20.30;45.07
78509;BME280;67802;50.846;7.958;2023-05-23T12:48:53;98231.22;;;20.30;45.01
78509;BME280;67802;50.846;7.958;2023-05-23T12:51:19;98236.47;;;20.30;44.93
78509;BME280;67802;50.846;7.958;2023-05-23T12:53:45;98225.94;;;20.30;45.17
78509;BME280;67802;50.846;7.958;2023-05-23T12:56:10;98231.22;;;20.30;44.86
78509;BME280;67802;50.846;7.958;2023-05-23T12:58:36;98232.31;;;20.28;44.95
78509;BME280;67802;50.846;7.958;2023-05-23T13:01:02;98235.03;;;20.26;44.93
78509;BME280;67802;50.846;7.958;2023-05-23T13:03:28;98236.00;;;20.25;44.93
78509;BME280;67802;50.846;7.958;2023-05-23T13:05:55;98245.81;;;20.23;44.86
78509;BME280;67802;50.846;7.958;2023-05-23T13:08:21;98241.63;;;20.21;44.90
78509;BME280;67802;50.846;7.958;2023-05-23T13:10:47;98240.91;;;20.19;44.90